sensor_id;sensor_type;location;lat;lon;timestamp;P1;durP1;ratioP1;P2;durP2;ratioP2
4422;SDS011;2224;49.814;8.650;2022-10-28T00:01:03;11.60;;;9.10;;
4422;SDS011;2224;49.814;8.650;2022-10-28T00:03:29;10.83;;;8.63;;
4422;SDS011;2224;49.814;8.650;2022-10-28T00:06:00;9.83;;;8.93;;
4422;SDS011;2224;49.814;8.650;2022-10-28T00:08:26;14.10;;;7.40;;
4422;SDS011;2224;49.814;8.650;2022-10-28T00:10:52;13.47;;;8.47;;
4422;SDS011;2224;49.814;8.650;2022-10-28T00:13:26;14.30;;;8.73;;
4422;SDS011;2224;49.814;8.650;2022-10-28T00:15:51;9.67;;;8.20;;
4422;SDS011;2224;49.814;8.650;2022-10-28T00:18:16;12.80;;;9.33;;
4422;SDS011;2224;49.814;8.650;2022-10-28T00:20:42;11.67;;;7.80;;
4422;SDS011;2224;49.814;8.650;2022-10-28T00:23:07;11.47;;;9.07;;
4422;SDS011;2224;49.814;8.650;2022-10-28T00:25:32;15.83;;;8.50;;
4422;SDS011;2224;49.814;8.650;2022-10-28T00:27:57;13.43;;;8.73;;
4422;SDS011;2224;49.814;8.650;2022-10-28T00:30:23;12.40;;;8.67;;
4422;SDS011;2224;49.814;8.650;2022-10-28T00:32:48;13.60;;;8.70;;
4422;SDS011;2224;49.814;8.650;2022-10-28T00:35:13;13.10;;;8.40;;
4422;SDS011;2224;49.814;8.650;2022-10-28T00:37:39;16.43;;;9.80;;
4422;SDS011;2224;49.814;8.650;2022-10-28T00:40:04;11.60;;;9.80;;
4422;SDS011;2224;49.814;8.650;2022-10-28T00:42:30;9.73;;;8.40;;
4422;SDS011;2224;49.814;8.650;2022-10-28T00:50:11;9.80;;;8.70;;
4422;SDS011;2224;49.814;8.650;2022-10-28T00:53:00;14.43;;;8.97;;
4422;SDS011;2224;49.814;8.650;2022-10-28T00:55:29;11.07;;;8.60;;
4422;SDS011;2224;49.814;8.650;2022-10-28T00:57:55;15.57;;;8.37;;
4422;SDS011;2224;49.814;8.650;2022-10-28T01:00:22;12.93;;;8.50;;
4422;SDS011;2224;49.814;8.650;2022-10-28T01:02:48;12.53;;;8.13;;
4422;SDS011;2224;49.814;8.650;2022-10-28T01:05:15;10.53;;;8.50;;
4422;SDS011;2224;49.814;8.650;2022-10-28T01:07:43;14.47;;;9.30;;
4422;SDS011;2224;49.814;8.650;2022-10-28T01:10:09;12.47;;;8.87;;
4422;SDS011;2224;49.814;8.650;2022-10-28T01:12:52;11.77;;;9.13;;
4422;SDS011;2224;49.814;8.650;2022-10-28T01:24:16;13.63;;;9.70;;
4422;SDS011;2224;49.814;8.650;2022-10-28T01:27:02;11.40;;;8.73;;
4422;SDS011;2224;49.814;8.650;2022-10-28T01:29:56;13.53;;;10.17;;
4422;SDS011;2224;49.814;8.650;2022-10-28T01:32:37;15.40;;;9.47;;
4422;SDS011;2224;49.814;8.650;2022-10-28T01:40:12;13.77;;;10.03;;
4422;SDS011;2224;49.814;8.650;2022-10-28T01:42:43;17.33;;;10.10;;
4422;SDS011;2224;49.814;8.650;2022-10-28T01:45:35;12.77;;;10.33;;
4422;SDS011;2224;49.814;8.650;2022-10-28T01:48:11;13.47;;;10.03;;
4422;SDS011;2224;49.814;8.650;2022-10-28T01:50:41;17.43;;;10.50;;
4422;SDS011;2224;49.814;8.650;2022-10-28T01:53:11;18.83;;;11.03;;
4422;SDS011;2224;49.814;8.650;2022-10-28T01:55:39;18.40;;;9.87;;
4422;SDS011;2224;49.814;8.650;2022-10-28T01:58:06;14.20;;;9.70;;
4422;SDS011;2224;49.814;8.650;2022-10-28T02:00:33;13.80;;;10.33;;
4422;SDS011;2224;49.814;8.650;2022-10-28T02:03:00;10.80;;;9.40;;
4422;SDS011;2224;49.814;8.650;2022-10-28T02:10:45;14.53;;;10.37;;
4422;SDS011;2224;49.814;8.650;2022-10-28T02:13:23;13.03;;;10.17;;
4422;SDS011;2224;49.814;8.650;2022-10-28T02:16:01;15.00;;;11.90;;
4422;SDS011;2224;49.814;8.650;2022-10-28T02:21:12;11.33;;;10.13;;
4422;SDS011;2224;49.814;8.650;2022-10-28T02:23:43;12.17;;;10.57;;
4422;SDS011;2224;49.814;8.650;2022-10-28T02:26:14;13.50;;;10.70;;
4422;SDS011;2224;49.814;8.650;2022-10-28T02:28:48;14.20;;;10.03;;
4422;SDS011;2224;49.814;8.650;2022-10-28T02:33:47;13.07;;;10.60;;
4422;SDS011;2224;49.814;8.650;2022-10-28T02:36:15;14.23;;;11.47;;
4422;SDS011;2224;49.814;8.650;2022-10-28T02:38:42;15.83;;;10.23;;
4422;SDS011;2224;49.814;8.650;2022-10-28T02:41:15;12.83;;;9.10;;
4422;SDS011;2224;49.814;8.650;2022-10-28T02:43:43;12.43;;;9.33;;
4422;SDS011;2224;49.814;8.650;2022-10-28T02:46:09;14.33;;;10.20;;
4422;SDS011;2224;49.814;8.650;2022-10-28T02:48:40;10.87;;;8.83;;
4422;SDS011;2224;49.814;8.650;2022-10-28T02:51:09;9.60;;;8.60;;
4422;SDS011;2224;49.814;8.650;2022-10-28T02:56:30;13.50;;;10.47;;
4422;SDS011;2224;49.814;8.650;2022-10-28T02:58:58;15.67;;;10.07;;
4422;SDS011;2224;49.814;8.650;2022-10-28T03:01:24;11.03;;;9.20;;
4422;SDS011;2224;49.814;8.650;2022-10-28T03:03:49;13.37;;;9.23;;
4422;SDS011;2224;49.814;8.650;2022-10-28T03:06:15;14.40;;;10.63;;
4422;SDS011;2224;49.814;8.650;2022-10-28T03:08:40;10.90;;;9.10;;
4422;SDS011;2224;49.814;8.650;2022-10-28T03:11:05;16.07;;;9.67;;
4422;SDS011;2224;49.814;8.650;2022-10-28T03:13:31;14.43;;;10.63;;
4422;SDS011;2224;49.814;8.650;2022-10-28T03:15:56;13.73;;;10.43;;
4422;SDS011;2224;49.814;8.650;2022-10-28T03:18:21;13.70;;;11.27;;
4422;SDS011;2224;49.814;8.650;2022-10-28T03:20:47;13.97;;;9.73;;
4422;SDS011;2224;49.814;8.650;2022-10-28T03:23:12;14.17;;;11.10;;
4422;SDS011;2224;49.814;8.650;2022-10-28T03:25:37;11.97;;;10.07;;
4422;SDS011;2224;49.814;8.650;2022-10-28T03:28:03;18.00;;;11.33;;
4422;SDS011;2224;49.814;8.650;2022-10-28T03:30:28;16.07;;;11.13;;
4422;SDS011;2224;49.814;8.650;2022-10-28T03:32:53;17.60;;;11.77;;
4422;SDS011;2224;49.814;8.650;2022-10-28T03:35:19;16.47;;;12.00;;
4422;SDS011;2224;49.814;8.650;2022-10-28T03:37:44;15.93;;;11.80;;
4422;SDS011;2224;49.814;8.650;2022-10-28T03:40:10;17.07;;;11.10;;
4422;SDS011;2224;49.814;8.650;2022-10-28T03:42:35;22.70;;;12.27;;
4422;SDS011;2224;49.814;8.650;2022-10-28T03:45:01;17.40;;;12.20;;
4422;SDS011;2224;49.814;8.650;2022-10-28T03:47:26;16.57;;;12.87;;
4422;SDS011;2224;49.814;8.650;2022-10-28T03:49:52;13.87;;;11.47;;
4422;SDS011;2224;49.814;8.650;2022-10-28T03:52:17;17.63;;;11.93;;
4422;SDS011;2224;49.814;8.650;2022-10-28T03:54:42;19.40;;;11.40;;
4422;SDS011;2224;49.814;8.650;2022-10-28T03:57:08;14.13;;;11.50;;
4422;SDS011;2224;49.814;8.650;2022-10-28T03:59:33;14.50;;;10.27;;
4422;SDS011;2224;49.814;8.650;2022-10-28T04:01:58;13.00;;;11.00;;
4422;SDS011;2224;49.814;8.650;2022-10-28T04:04:23;14.37;;;10.60;;
4422;SDS011;2224;49.814;8.650;2022-10-28T04:06:49;12.23;;;10.10;;
4422;SDS011;2224;49.814;8.650;2022-10-28T04:09:14;15.40;;;10.97;;
4422;SDS011;2224;49.814;8.650;2022-10-28T04:11:39;18.30;;;10.80;;
4422;SDS011;2224;49.814;8.650;2022-10-28T04:14:05;12.30;;;10.90;;
4422;SDS011;2224;49.814;8.650;2022-10-28T04:16:30;15.60;;;11.73;;
4422;SDS011;2224;49.814;8.650;2022-10-28T04:18:55;15.33;;;12.30;;
4422;SDS011;2224;49.814;8.650;2022-10-28T04:21:21;21.37;;;11.80;;
4422;SDS011;2224;49.814;8.650;2022-10-28T04:23:46;16.57;;;11.97;;
4422;SDS011;2224;49.814;8.650;2022-10-28T04:26:11;14.47;;;12.03;;
4422;SDS011;2224;49.814;8.650;2022-10-28T04:28:38;14.37;;;11.60;;
4422;SDS011;2224;49.814;8.650;2022-10-28T04:31:03;19.90;;;12.23;;
4422;SDS011;2224;49.814;8.650;2022-10-28T04:33:28;17.17;;;11.43;;
4422;SDS011;2224;49.814;8.650;2022-10-28T04:35:54;12.77;;;11.07;;
4422;SDS011;2224;49.814;8.650;2022-10-28T04:38:19;17.00;;;11.93;;
4422;SDS011;2224;49.814;8.650;2022-10-28T04:40:48;18.47;;;11.27;;
4422;SDS011;2224;49.814;8.650;2022-10-28T04:43:13;15.60;;;11.23;;
4422;SDS011;2224;49.814;8.650;2022-10-28T04:45:39;12.30;;;10.40;;
4422;SDS011;2224;49.814;8.650;2022-10-28T04:48:04;15.13;;;11.30;;
4422;SDS011;2224;49.814;8.650;2022-10-28T04:50:30;19.20;;;10.53;;
4422;SDS011;2224;49.814;8.650;2022-10-28T04:52:55;16.83;;;9.43;;
4422;SDS011;2224;49.814;8.650;2022-10-28T04:55:20;13.77;;;9.70;;
4422;SDS011;2224;49.814;8.650;2022-10-28T04:57:53;12.60;;;9.10;;
4422;SDS011;2224;49.814;8.650;2022-10-28T05:00:19;14.53;;;9.40;;
4422;SDS011;2224;49.814;8.650;2022-10-28T05:02:44;12.07;;;8.47;;
4422;SDS011;2224;49.814;8.650;2022-10-28T05:05:10;13.47;;;10.27;;
4422;SDS011;2224;49.814;8.650;2022-10-28T05:07:35;13.33;;;9.80;;
4422;SDS011;2224;49.814;8.650;2022-10-28T05:10:02;18.13;;;10.50;;
4422;SDS011;2224;49.814;8.650;2022-10-28T05:12:27;17.83;;;10.87;;
4422;SDS011;2224;49.814;8.650;2022-10-28T05:14:52;14.40;;;11.00;;
4422;SDS011;2224;49.814;8.650;2022-10-28T05:17:18;13.53;;;10.40;;
4422;SDS011;2224;49.814;8.650;2022-10-28T05:19:43;15.37;;;10.03;;
4422;SDS011;2224;49.814;8.650;2022-10-28T05:22:09;13.17;;;10.80;;
4422;SDS011;2224;49.814;8.650;2022-10-28T05:24:34;16.53;;;10.00;;
4422;SDS011;2224;49.814;8.650;2022-10-28T05:27:00;13.20;;;11.27;;
4422;SDS011;2224;49.814;8.650;2022-10-28T05:29:25;13.50;;;11.07;;
4422;SDS011;2224;49.814;8.650;2022-10-28T05:31:50;17.07;;;11.10;;
4422;SDS011;2224;49.814;8.650;2022-10-28T05:34:15;15.00;;;11.00;;
4422;SDS011;2224;49.814;8.650;2022-10-28T05:36:41;14.97;;;10.60;;
4422;SDS011;2224;49.814;8.650;2022-10-28T05:39:06;19.67;;;10.63;;
4422;SDS011;2224;49.814;8.650;2022-10-28T05:41:31;17.10;;;11.20;;
4422;SDS011;2224;49.814;8.650;2022-10-28T05:43:57;18.90;;;11.10;;
4422;SDS011;2224;49.814;8.650;2022-10-28T05:46:22;14.60;;;10.70;;
4422;SDS011;2224;49.814;8.650;2022-10-28T05:48:47;19.03;;;9.53;;
4422;SDS011;2224;49.814;8.650;2022-10-28T05:51:13;16.83;;;10.80;;
4422;SDS011;2224;49.814;8.650;2022-10-28T05:53:38;12.07;;;9.77;;
4422;SDS011;2224;49.814;8.650;2022-10-28T05:56:05;14.30;;;11.63;;
4422;SDS011;2224;49.814;8.650;2022-10-28T05:58:31;13.43;;;10.47;;
4422;SDS011;2224;49.814;8.650;2022-10-28T06:00:56;16.40;;;10.43;;
4422;SDS011;2224;49.814;8.650;2022-10-28T06:03:22;15.73;;;10.37;;
4422;SDS011;2224;49.814;8.650;2022-10-28T06:05:47;13.93;;;10.57;;
4422;SDS011;2224;49.814;8.650;2022-10-28T06:08:12;14.07;;;10.57;;
4422;SDS011;2224;49.814;8.650;2022-10-28T06:10:38;14.33;;;10.60;;
4422;SDS011;2224;49.814;8.650;2022-10-28T06:13:04;11.87;;;9.20;;
4422;SDS011;2224;49.814;8.650;2022-10-28T06:15:29;10.70;;;9.53;;
4422;SDS011;2224;49.814;8.650;2022-10-28T06:17:55;20.97;;;10.70;;
4422;SDS011;2224;49.814;8.650;2022-10-28T06:20:20;16.40;;;11.93;;
4422;SDS011;2224;49.814;8.650;2022-10-28T06:22:49;11.43;;;9.60;;
4422;SDS011;2224;49.814;8.650;2022-10-28T06:25:15;19.97;;;10.83;;
4422;SDS011;2224;49.814;8.650;2022-10-28T06:27:40;19.53;;;10.30;;
4422;SDS011;2224;49.814;8.650;2022-10-28T06:30:06;12.77;;;9.07;;
4422;SDS011;2224;49.814;8.650;2022-10-28T06:32:35;14.97;;;8.70;;
4422;SDS011;2224;49.814;8.650;2022-10-28T06:35:00;15.17;;;9.77;;
4422;SDS011;2224;49.814;8.650;2022-10-28T06:37:25;20.37;;;10.30;;
4422;SDS011;2224;49.814;8.650;2022-10-28T06:39:51;16.13;;;9.97;;
4422;SDS011;2224;49.814;8.650;2022-10-28T06:42:17;14.33;;;8.77;;
4422;SDS011;2224;49.814;8.650;2022-10-28T06:44:43;15.37;;;9.13;;
4422;SDS011;2224;49.814;8.650;2022-10-28T06:47:08;8.53;;;7.60;;
4422;SDS011;2224;49.814;8.650;2022-10-28T06:49:34;14.13;;;9.90;;
4422;SDS011;2224;49.814;8.650;2022-10-28T06:51:59;14.97;;;8.70;;
4422;SDS011;2224;49.814;8.650;2022-10-28T06:54:24;11.90;;;9.63;;
4422;SDS011;2224;49.814;8.650;2022-10-28T06:56:49;14.23;;;8.40;;
4422;SDS011;2224;49.814;8.650;2022-10-28T06:59:15;16.13;;;8.73;;
4422;SDS011;2224;49.814;8.650;2022-10-28T07:01:42;13.57;;;9.57;;
4422;SDS011;2224;49.814;8.650;2022-10-28T07:04:11;13.40;;;9.80;;
4422;SDS011;2224;49.814;8.650;2022-10-28T07:06:38;14.30;;;9.63;;
4422;SDS011;2224;49.814;8.650;2022-10-28T07:09:05;19.83;;;10.30;;
4422;SDS011;2224;49.814;8.650;2022-10-28T07:11:30;19.70;;;10.40;;
4422;SDS011;2224;49.814;8.650;2022-10-28T07:13:55;23.47;;;10.60;;
4422;SDS011;2224;49.814;8.650;2022-10-28T07:16:21;26.33;;;10.50;;
4422;SDS011;2224;49.814;8.650;2022-10-28T07:18:46;23.50;;;12.50;;
4422;SDS011;2224;49.814;8.650;2022-10-28T07:21:11;18.63;;;10.77;;
4422;SDS011;2224;49.814;8.650;2022-10-28T07:23:38;22.70;;;11.80;;
4422;SDS011;2224;49.814;8.650;2022-10-28T07:26:03;17.80;;;10.93;;
4422;SDS011;2224;49.814;8.650;2022-10-28T07:28:29;13.70;;;9.77;;
4422;SDS011;2224;49.814;8.650;2022-10-28T07:30:58;23.97;;;12.43;;
4422;SDS011;2224;49.814;8.650;2022-10-28T07:33:24;15.63;;;9.83;;
4422;SDS011;2224;49.814;8.650;2022-10-28T07:35:49;13.07;;;9.63;;
4422;SDS011;2224;49.814;8.650;2022-10-28T07:38:14;16.53;;;11.13;;
4422;SDS011;2224;49.814;8.650;2022-10-28T07:40:40;13.30;;;9.50;;
4422;SDS011;2224;49.814;8.650;2022-10-28T07:43:05;16.40;;;10.20;;
4422;SDS011;2224;49.814;8.650;2022-10-28T07:45:30;19.70;;;10.63;;
4422;SDS011;2224;49.814;8.650;2022-10-28T07:47:56;15.37;;;11.00;;
4422;SDS011;2224;49.814;8.650;2022-10-28T07:50:21;15.50;;;10.60;;
4422;SDS011;2224;49.814;8.650;2022-10-28T07:52:46;17.20;;;11.30;;
4422;SDS011;2224;49.814;8.650;2022-10-28T07:55:12;19.53;;;11.87;;
4422;SDS011;2224;49.814;8.650;2022-10-28T07:57:37;16.63;;;10.70;;
4422;SDS011;2224;49.814;8.650;2022-10-28T08:00:03;16.30;;;11.53;;
4422;SDS011;2224;49.814;8.650;2022-10-28T08:02:29;21.57;;;11.10;;
4422;SDS011;2224;49.814;8.650;2022-10-28T08:04:54;14.00;;;11.20;;
4422;SDS011;2224;49.814;8.650;2022-10-28T08:07:20;17.07;;;11.50;;
4422;SDS011;2224;49.814;8.650;2022-10-28T08:09:46;16.43;;;11.20;;
4422;SDS011;2224;49.814;8.650;2022-10-28T08:12:12;15.93;;;10.77;;
4422;SDS011;2224;49.814;8.650;2022-10-28T08:14:38;18.90;;;12.00;;
4422;SDS011;2224;49.814;8.650;2022-10-28T08:17:03;15.10;;;10.13;;
4422;SDS011;2224;49.814;8.650;2022-10-28T08:19:29;12.63;;;10.80;;
4422;SDS011;2224;49.814;8.650;2022-10-28T08:21:54;13.70;;;11.77;;
4422;SDS011;2224;49.814;8.650;2022-10-28T08:24:20;13.40;;;11.23;;
4422;SDS011;2224;49.814;8.650;2022-10-28T08:26:45;17.30;;;11.00;;
4422;SDS011;2224;49.814;8.650;2022-10-28T08:29:10;17.20;;;11.33;;
4422;SDS011;2224;49.814;8.650;2022-10-28T08:31:36;17.27;;;12.27;;
4422;SDS011;2224;49.814;8.650;2022-10-28T08:34:02;13.73;;;10.90;;
4422;SDS011;2224;49.814;8.650;2022-10-28T08:36:27;15.03;;;11.87;;
4422;SDS011;2224;49.814;8.650;2022-10-28T08:38:52;13.93;;;11.20;;
4422;SDS011;2224;49.814;8.650;2022-10-28T08:49:50;13.87;;;9.67;;
4422;SDS011;2224;49.814;8.650;2022-10-28T08:54:54;19.07;;;10.40;;
4422;SDS011;2224;49.814;8.650;2022-10-28T08:57:43;10.97;;;9.87;;
4422;SDS011;2224;49.814;8.650;2022-10-28T09:00:23;14.30;;;9.80;;
4422;SDS011;2224;49.814;8.650;2022-10-28T09:05:27;14.00;;;10.10;;
4422;SDS011;2224;49.814;8.650;2022-10-28T09:07:52;17.70;;;10.27;;
4422;SDS011;2224;49.814;8.650;2022-10-28T09:10:55;12.13;;;10.57;;
4422;SDS011;2224;49.814;8.650;2022-10-28T09:13:25;13.23;;;9.40;;
4422;SDS011;2224;49.814;8.650;2022-10-28T09:18:53;13.90;;;9.70;;
4422;SDS011;2224;49.814;8.650;2022-10-28T09:21:23;12.80;;;8.57;;
4422;SDS011;2224;49.814;8.650;2022-10-28T09:23:53;13.77;;;10.10;;
4422;SDS011;2224;49.814;8.650;2022-10-28T09:37:11;14.37;;;9.03;;
4422;SDS011;2224;49.814;8.650;2022-10-28T09:39:43;13.03;;;9.80;;
4422;SDS011;2224;49.814;8.650;2022-10-28T09:42:13;13.33;;;9.40;;
4422;SDS011;2224;49.814;8.650;2022-10-28T09:44:44;10.63;;;8.33;;
4422;SDS011;2224;49.814;8.650;2022-10-28T09:47:16;10.63;;;8.30;;
4422;SDS011;2224;49.814;8.650;2022-10-28T09:49:43;18.67;;;9.73;;
4422;SDS011;2224;49.814;8.650;2022-10-28T09:52:12;12.90;;;8.87;;
4422;SDS011;2224;49.814;8.650;2022-10-28T09:54:43;16.27;;;8.23;;
4422;SDS011;2224;49.814;8.650;2022-10-28T09:57:14;11.00;;;8.13;;
4422;SDS011;2224;49.814;8.650;2022-10-28T09:59:40;12.90;;;8.07;;
4422;SDS011;2224;49.814;8.650;2022-10-28T10:02:07;10.30;;;7.57;;
4422;SDS011;2224;49.814;8.650;2022-10-28T10:04:45;12.93;;;7.03;;
4422;SDS011;2224;49.814;8.650;2022-10-28T10:07:11;10.57;;;7.27;;
4422;SDS011;2224;49.814;8.650;2022-10-28T10:09:49;10.27;;;6.10;;
4422;SDS011;2224;49.814;8.650;2022-10-28T10:12:16;9.97;;;6.30;;
4422;SDS011;2224;49.814;8.650;2022-10-28T10:14:43;10.47;;;6.27;;
4422;SDS011;2224;49.814;8.650;2022-10-28T10:17:34;11.73;;;5.80;;
4422;SDS011;2224;49.814;8.650;2022-10-28T10:20:09;8.37;;;5.57;;
4422;SDS011;2224;49.814;8.650;2022-10-28T10:22:41;9.77;;;6.13;;
4422;SDS011;2224;49.814;8.650;2022-10-28T10:30:28;11.93;;;5.20;;
4422;SDS011;2224;49.814;8.650;2022-10-28T10:32:56;9.10;;;5.83;;
4422;SDS011;2224;49.814;8.650;2022-10-28T10:35:23;16.03;;;7.27;;
4422;SDS011;2224;49.814;8.650;2022-10-28T10:37:51;6.90;;;5.20;;
4422;SDS011;2224;49.814;8.650;2022-10-28T10:40:20;11.43;;;6.77;;
4422;SDS011;2224;49.814;8.650;2022-10-28T10:42:47;15.60;;;6.00;;
4422;SDS011;2224;49.814;8.650;2022-10-28T10:45:20;9.97;;;5.57;;
4422;SDS011;2224;49.814;8.650;2022-10-28T10:47:47;7.20;;;5.80;;
4422;SDS011;2224;49.814;8.650;2022-10-28T10:50:17;11.30;;;6.07;;
4422;SDS011;2224;49.814;8.650;2022-10-28T10:52:48;10.13;;;5.03;;
4422;SDS011;2224;49.814;8.650;2022-10-28T10:55:19;10.07;;;5.30;;
4422;SDS011;2224;49.814;8.650;2022-10-28T10:57:48;5.70;;;5.07;;
4422;SDS011;2224;49.814;8.650;2022-10-28T11:00:14;5.80;;;5.10;;
4422;SDS011;2224;49.814;8.650;2022-10-28T11:02:43;13.33;;;6.50;;
4422;SDS011;2224;49.814;8.650;2022-10-28T11:05:10;10.93;;;5.70;;
4422;SDS011;2224;49.814;8.650;2022-10-28T11:07:36;8.23;;;5.37;;
4422;SDS011;2224;49.814;8.650;2022-10-28T11:10:04;13.20;;;5.37;;
4422;SDS011;2224;49.814;8.650;2022-10-28T11:12:31;11.80;;;5.13;;
4422;SDS011;2224;49.814;8.650;2022-10-28T11:15:02;9.80;;;5.53;;
4422;SDS011;2224;49.814;8.650;2022-10-28T11:20:55;11.73;;;4.03;;
4422;SDS011;2224;49.814;8.650;2022-10-28T11:23:39;9.17;;;4.90;;
4422;SDS011;2224;49.814;8.650;2022-10-28T11:26:12;12.57;;;4.60;;
4422;SDS011;2224;49.814;8.650;2022-10-28T11:28:45;8.43;;;3.83;;
4422;SDS011;2224;49.814;8.650;2022-10-28T11:31:26;8.10;;;3.30;;
4422;SDS011;2224;49.814;8.650;2022-10-28T11:37:10;8.60;;;3.77;;
4422;SDS011;2224;49.814;8.650;2022-10-28T11:47:53;11.70;;;4.43;;
4422;SDS011;2224;49.814;8.650;2022-10-28T11:53:20;7.90;;;2.80;;
4422;SDS011;2224;49.814;8.650;2022-10-28T11:55:55;7.50;;;3.03;;
4422;SDS011;2224;49.814;8.650;2022-10-28T11:58:50;8.23;;;3.70;;
4422;SDS011;2224;49.814;8.650;2022-10-28T12:06:15;6.00;;;3.70;;
4422;SDS011;2224;49.814;8.650;2022-10-28T12:08:52;10.90;;;3.70;;
4422;SDS011;2224;49.814;8.650;2022-10-28T12:21:37;15.20;;;4.77;;
4422;SDS011;2224;49.814;8.650;2022-10-28T12:24:05;6.23;;;3.50;;
4422;SDS011;2224;49.814;8.650;2022-10-28T12:26:39;11.37;;;3.43;;
4422;SDS011;2224;49.814;8.650;2022-10-28T12:34:30;10.90;;;3.47;;
4422;SDS011;2224;49.814;8.650;2022-10-28T12:36:59;8.70;;;3.30;;
4422;SDS011;2224;49.814;8.650;2022-10-28T12:39:44;7.67;;;3.70;;
4422;SDS011;2224;49.814;8.650;2022-10-28T12:42:17;9.13;;;3.30;;
4422;SDS011;2224;49.814;8.650;2022-10-28T12:44:44;6.40;;;3.03;;
4422;SDS011;2224;49.814;8.650;2022-10-28T12:50:12;7.13;;;3.37;;
4422;SDS011;2224;49.814;8.650;2022-10-28T12:55:19;8.23;;;2.90;;
4422;SDS011;2224;49.814;8.650;2022-10-28T12:57:54;11.17;;;3.73;;
4422;SDS011;2224;49.814;8.650;2022-10-28T13:00:25;7.33;;;3.53;;
4422;SDS011;2224;49.814;8.650;2022-10-28T13:02:54;6.93;;;3.37;;
4422;SDS011;2224;49.814;8.650;2022-10-28T13:05:25;8.47;;;3.03;;
4422;SDS011;2224;49.814;8.650;2022-10-28T13:16:09;10.93;;;3.20;;
4422;SDS011;2224;49.814;8.650;2022-10-28T13:19:17;7.13;;;3.50;;
4422;SDS011;2224;49.814;8.650;2022-10-28T13:26:53;9.37;;;4.50;;
4422;SDS011;2224;49.814;8.650;2022-10-28T13:29:23;12.67;;;4.47;;
4422;SDS011;2224;49.814;8.650;2022-10-28T13:31:50;6.27;;;3.33;;
4422;SDS011;2224;49.814;8.650;2022-10-28T13:34:17;8.30;;;3.70;;
4422;SDS011;2224;49.814;8.650;2022-10-28T13:36:44;8.23;;;3.80;;
4422;SDS011;2224;49.814;8.650;2022-10-28T13:39:24;8.37;;;3.70;;
4422;SDS011;2224;49.814;8.650;2022-10-28T13:44:50;8.87;;;3.27;;
4422;SDS011;2224;49.814;8.650;2022-10-28T13:47:30;9.40;;;3.80;;
4422;SDS011;2224;49.814;8.650;2022-10-28T13:52:44;9.23;;;3.60;;
4422;SDS011;2224;49.814;8.650;2022-10-28T13:57:59;7.27;;;3.50;;
4422;SDS011;2224;49.814;8.650;2022-10-28T14:03:04;11.13;;;3.67;;
4422;SDS011;2224;49.814;8.650;2022-10-28T14:07:57;6.60;;;3.00;;
4422;SDS011;2224;49.814;8.650;2022-10-28T14:10:25;14.60;;;4.17;;
4422;SDS011;2224;49.814;8.650;2022-10-28T14:15:40;8.17;;;4.20;;
4422;SDS011;2224;49.814;8.650;2022-10-28T14:18:27;9.40;;;4.20;;
4422;SDS011;2224;49.814;8.650;2022-10-28T14:20:53;12.63;;;3.90;;
4422;SDS011;2224;49.814;8.650;2022-10-28T14:43:50;13.03;;;8.13;;
4422;SDS011;2224;49.814;8.650;2022-10-28T14:49:12;8.50;;;4.93;;
4422;SDS011;2224;49.814;8.650;2022-10-28T14:51:46;22.40;;;10.77;;
4422;SDS011;2224;49.814;8.650;2022-10-28T14:54:13;23.10;;;9.90;;
4422;SDS011;2224;49.814;8.650;2022-10-28T14:56:39;22.03;;;15.80;;
4422;SDS011;2224;49.814;8.650;2022-10-28T14:59:19;15.50;;;10.10;;
4422;SDS011;2224;49.814;8.650;2022-10-28T15:01:57;10.00;;;7.97;;
4422;SDS011;2224;49.814;8.650;2022-10-28T15:04:55;11.37;;;5.80;;
4422;SDS011;2224;49.814;8.650;2022-10-28T15:07:23;8.53;;;5.30;;
4422;SDS011;2224;49.814;8.650;2022-10-28T15:09:48;10.10;;;3.80;;
4422;SDS011;2224;49.814;8.650;2022-10-28T15:12:20;9.73;;;3.80;;
4422;SDS011;2224;49.814;8.650;2022-10-28T15:14:47;6.43;;;3.70;;
4422;SDS011;2224;49.814;8.650;2022-10-28T15:19:53;10.03;;;3.60;;
4422;SDS011;2224;49.814;8.650;2022-10-28T15:27:23;8.97;;;3.83;;
4422;SDS011;2224;49.814;8.650;2022-10-28T15:29:50;7.23;;;4.50;;
4422;SDS011;2224;49.814;8.650;2022-10-28T15:34:44;9.80;;;4.47;;
4422;SDS011;2224;49.814;8.650;2022-10-28T15:37:14;11.33;;;4.50;;
4422;SDS011;2224;49.814;8.650;2022-10-28T15:39:41;7.00;;;4.30;;
4422;SDS011;2224;49.814;8.650;2022-10-28T15:45:31;10.60;;;4.80;;
4422;SDS011;2224;49.814;8.650;2022-10-28T15:47:58;13.50;;;4.73;;
4422;SDS011;2224;49.814;8.650;2022-10-28T15:50:26;11.83;;;4.90;;
4422;SDS011;2224;49.814;8.650;2022-10-28T15:55:35;10.17;;;3.87;;
4422;SDS011;2224;49.814;8.650;2022-10-28T16:00:35;10.10;;;4.37;;
4422;SDS011;2224;49.814;8.650;2022-10-28T16:03:39;11.23;;;4.90;;
4422;SDS011;2224;49.814;8.650;2022-10-28T16:06:04;7.10;;;4.00;;
4422;SDS011;2224;49.814;8.650;2022-10-28T16:08:30;9.50;;;4.37;;
4422;SDS011;2224;49.814;8.650;2022-10-28T16:11:01;11.13;;;4.33;;
4422;SDS011;2224;49.814;8.650;2022-10-28T16:13:35;7.30;;;4.07;;
4422;SDS011;2224;49.814;8.650;2022-10-28T16:16:06;13.10;;;4.83;;
4422;SDS011;2224;49.814;8.650;2022-10-28T16:18:42;7.97;;;4.10;;
4422;SDS011;2224;49.814;8.650;2022-10-28T16:21:28;14.23;;;4.83;;
4422;SDS011;2224;49.814;8.650;2022-10-28T16:23:54;12.73;;;4.77;;
4422;SDS011;2224;49.814;8.650;2022-10-28T16:26:23;9.77;;;4.80;;
4422;SDS011;2224;49.814;8.650;2022-10-28T16:28:48;10.47;;;4.33;;
4422;SDS011;2224;49.814;8.650;2022-10-28T16:31:14;13.40;;;4.93;;
4422;SDS011;2224;49.814;8.650;2022-10-28T16:33:40;8.47;;;4.20;;
4422;SDS011;2224;49.814;8.650;2022-10-28T16:36:06;11.50;;;4.93;;
4422;SDS011;2224;49.814;8.650;2022-10-28T16:38:32;14.43;;;5.30;;
4422;SDS011;2224;49.814;8.650;2022-10-28T16:40:57;11.37;;;4.63;;
4422;SDS011;2224;49.814;8.650;2022-10-28T16:43:24;8.97;;;4.07;;
4422;SDS011;2224;49.814;8.650;2022-10-28T16:45:50;9.87;;;4.73;;
4422;SDS011;2224;49.814;8.650;2022-10-28T16:48:17;9.00;;;4.47;;
4422;SDS011;2224;49.814;8.650;2022-10-28T16:50:46;9.60;;;5.17;;
4422;SDS011;2224;49.814;8.650;2022-10-28T16:53:23;13.87;;;4.83;;
4422;SDS011;2224;49.814;8.650;2022-10-28T16:55:48;8.57;;;5.00;;
4422;SDS011;2224;49.814;8.650;2022-10-28T16:58:14;8.53;;;4.50;;
4422;SDS011;2224;49.814;8.650;2022-10-28T17:00:39;8.67;;;5.10;;
4422;SDS011;2224;49.814;8.650;2022-10-28T17:03:05;11.70;;;5.70;;
4422;SDS011;2224;49.814;8.650;2022-10-28T17:05:31;10.40;;;4.70;;
4422;SDS011;2224;49.814;8.650;2022-10-28T17:07:56;10.70;;;5.17;;
4422;SDS011;2224;49.814;8.650;2022-10-28T17:10:22;12.37;;;5.07;;
4422;SDS011;2224;49.814;8.650;2022-10-28T17:12:49;12.73;;;4.53;;
4422;SDS011;2224;49.814;8.650;2022-10-28T17:15:14;18.83;;;4.40;;
4422;SDS011;2224;49.814;8.650;2022-10-28T17:17:39;10.63;;;5.40;;
4422;SDS011;2224;49.814;8.650;2022-10-28T17:20:05;9.83;;;5.07;;
4422;SDS011;2224;49.814;8.650;2022-10-28T17:22:31;10.23;;;4.53;;
4422;SDS011;2224;49.814;8.650;2022-10-28T17:24:56;11.03;;;5.53;;
4422;SDS011;2224;49.814;8.650;2022-10-28T17:27:22;9.97;;;4.50;;
4422;SDS011;2224;49.814;8.650;2022-10-28T17:29:47;10.10;;;4.50;;
4422;SDS011;2224;49.814;8.650;2022-10-28T17:32:13;10.17;;;4.53;;
4422;SDS011;2224;49.814;8.650;2022-10-28T17:34:38;7.20;;;4.93;;
4422;SDS011;2224;49.814;8.650;2022-10-28T17:37:04;11.57;;;4.90;;
4422;SDS011;2224;49.814;8.650;2022-10-28T17:39:30;7.70;;;3.93;;
4422;SDS011;2224;49.814;8.650;2022-10-28T17:41:55;9.20;;;4.90;;
4422;SDS011;2224;49.814;8.650;2022-10-28T17:44:20;8.90;;;4.80;;
4422;SDS011;2224;49.814;8.650;2022-10-28T17:46:48;12.60;;;5.10;;
4422;SDS011;2224;49.814;8.650;2022-10-28T17:49:15;8.47;;;4.63;;
4422;SDS011;2224;49.814;8.650;2022-10-28T17:51:40;8.77;;;4.80;;
4422;SDS011;2224;49.814;8.650;2022-10-28T17:54:05;7.80;;;4.73;;
4422;SDS011;2224;49.814;8.650;2022-10-28T17:56:34;13.00;;;4.87;;
4422;SDS011;2224;49.814;8.650;2022-10-28T17:58:59;13.57;;;5.20;;
4422;SDS011;2224;49.814;8.650;2022-10-28T18:01:25;9.83;;;4.87;;
4422;SDS011;2224;49.814;8.650;2022-10-28T18:03:54;7.73;;;4.40;;
4422;SDS011;2224;49.814;8.650;2022-10-28T18:06:19;10.13;;;5.27;;
4422;SDS011;2224;49.814;8.650;2022-10-28T18:08:45;9.27;;;5.10;;